createdAt,value
2022-12-03T00:02:12.183Z,128.25
2022-12-03T00:05:20.966Z,132.55
2022-12-03T00:08:30.097Z,128.20
2022-12-03T00:11:32.612Z,130.25
2022-12-03T00:14:48.026Z,128.45
2022-12-03T00:17:56.960Z,127.60
2022-12-03T00:21:05.951Z,132.23
2022-12-03T00:24:08.744Z,130.43
2022-12-03T00:27:18.048Z,126.90
2022-12-03T00:30:20.401Z,125.93
2022-12-03T00:33:30.072Z,129.23
2022-12-03T00:36:32.247Z,129.10
2022-12-03T00:39:41.152Z,128.40
2022-12-03T00:42:44.411Z,128.98
2022-12-03T00:45:53.000Z,129.38
2022-12-03T00:48:56.207Z,132.07
2022-12-03T00:52:05.037Z,135.50
2022-12-03T00:55:07.967Z,135.13
2022-12-03T00:58:17.119Z,135.88
2022-12-03T01:01:23.279Z,140.15
2022-12-03T01:04:32.181Z,135.48
2022-12-03T01:07:34.295Z,138.68
2022-12-03T01:10:43.084Z,134.70
2022-12-03T01:13:51.343Z,136.10
2022-12-03T01:16:55.040Z,138.13
2022-12-03T01:23:06.027Z,135.27
2022-12-03T01:26:08.196Z,142.60
2022-12-03T01:29:17.997Z,140.90
2022-12-03T01:32:28.093Z,149.18
2022-12-03T01:35:30.304Z,145.25
2022-12-03T01:38:38.975Z,144.88
2022-12-03T01:41:44.382Z,149.50
2022-12-03T01:47:55.397Z,142.18
2022-12-03T01:51:05.064Z,145.85
2022-12-03T01:54:17.355Z,145.35
2022-12-03T01:57:22.048Z,150.35
2022-12-03T02:00:36.013Z,146.80
2022-12-03T02:03:38.302Z,149.88
2022-12-03T02:06:47.031Z,152.38
2022-12-03T02:09:56.389Z,147.73
2022-12-03T02:13:10.375Z,152.98
2022-12-03T02:19:44.863Z,154.13
2022-12-03T02:23:02.941Z,156.02
2022-12-03T02:26:06.332Z,161.65
2022-12-03T02:29:14.953Z,161.45
2022-12-03T02:32:24.043Z,161.05
2022-12-03T02:35:29.325Z,165.23
2022-12-03T02:38:42.046Z,165.15
2022-12-03T02:42:02.403Z,159.63
2022-12-03T02:45:13.938Z,156.23
2022-12-03T02:48:21.220Z,161.05
2022-12-03T02:51:30.007Z,157.82
2022-12-03T02:54:38.957Z,165.05
2022-12-03T02:57:51.085Z,165.60
2022-12-03T03:00:55.591Z,172.90
2022-12-03T03:04:07.086Z,182.50
2022-12-03T03:07:10.256Z,184.75
2022-12-03T03:10:22.086Z,185.88
2022-12-03T03:13:24.707Z,178.48
2022-12-03T03:16:35.180Z,182.70
2022-12-03T03:19:38.283Z,185.55
2022-12-03T03:22:48.986Z,180.98
2022-12-03T03:26:10.074Z,173.52
2022-12-03T03:29:18.940Z,172.15
2022-12-03T03:32:29.138Z,163.77
2022-12-03T03:35:32.281Z,155.95
2022-12-03T03:38:42.064Z,156.75
2022-12-03T03:41:45.350Z,151.27
2022-12-03T03:44:47.982Z,149.07
2022-12-03T03:47:51.426Z,139.70
2022-12-03T03:51:00.923Z,137.88
2022-12-03T03:54:05.394Z,136.10
2022-12-03T03:57:13.928Z,133.85
2022-12-03T04:00:22.945Z,124.47
2022-12-03T04:03:25.364Z,121.50
2022-12-03T04:06:35.984Z,122.70
2022-12-03T04:09:45.069Z,123.15
2022-12-03T04:12:56.440Z,128.68
2022-12-03T04:16:05.079Z,131.00
2022-12-03T04:19:07.228Z,123.68
2022-12-03T04:22:35.003Z,116.15
2022-12-03T04:25:55.442Z,115.95
2022-12-03T04:29:03.960Z,115.18
2022-12-03T04:32:25.381Z,117.22
2022-12-03T04:35:51.952Z,117.50
2022-12-03T04:39:00.910Z,120.63
2022-12-03T04:42:10.231Z,120.57
2022-12-03T04:45:19.064Z,123.85
2022-12-03T04:48:21.308Z,126.40
2022-12-03T04:51:31.016Z,127.60
2022-12-03T04:54:34.769Z,126.00
2022-12-03T04:57:44.990Z,113.60
2022-12-03T05:00:47.462Z,108.53
2022-12-03T05:03:55.907Z,98.80
2022-12-03T05:06:58.332Z,101.05
2022-12-03T05:10:08.080Z,103.53
2022-12-03T05:13:10.326Z,105.75
2022-12-03T05:16:20.069Z,105.85
2022-12-03T05:19:22.349Z,99.70
2022-12-03T05:22:32.109Z,96.63
2022-12-03T05:25:34.369Z,101.72
2022-12-03T05:28:43.904Z,98.47
2022-12-03T05:31:46.293Z,94.43
2022-12-03T05:34:55.274Z,91.75
2022-12-03T05:37:57.460Z,89.18
2022-12-03T05:41:05.884Z,92.60
2022-12-03T05:44:08.378Z,88.90
2022-12-03T05:47:17.011Z,85.22
2022-12-03T05:50:26.909Z,85.80
2022-12-03T05:53:49.007Z,85.82
2022-12-03T05:56:58.921Z,83.75
2022-12-03T06:00:08.097Z,89.60
2022-12-03T06:03:12.428Z,85.82
2022-12-03T06:06:21.050Z,87.20
2022-12-03T06:09:09.953Z,82.18
2022-12-03T06:12:01.985Z,78.38
2022-12-03T06:14:57.010Z,78.50
2022-12-03T06:17:45.907Z,76.18
2022-12-03T06:20:36.162Z,75.47
2022-12-03T06:23:24.996Z,77.85
2022-12-03T06:26:07.320Z,73.63
2022-12-03T06:28:56.921Z,72.22
2022-12-03T06:31:39.348Z,71.45
2022-12-03T06:34:28.016Z,69.40
2022-12-03T06:37:10.261Z,69.35
2022-12-03T06:39:59.010Z,71.15
2022-12-03T06:42:41.309Z,70.53
2022-12-03T06:45:29.971Z,68.60
2022-12-03T06:48:12.331Z,66.72
2022-12-03T06:51:00.945Z,65.10
2022-12-03T06:53:43.348Z,63.55
2022-12-03T06:56:36.754Z,66.57
2022-12-03T06:59:26.940Z,64.25
2022-12-03T07:02:17.119Z,60.35
2022-12-03T07:04:59.353Z,63.75
2022-12-03T07:07:48.168Z,63.10
2022-12-03T07:10:30.356Z,63.28
2022-12-03T07:13:19.053Z,60.25
2022-12-03T07:16:13.956Z,59.53
2022-12-03T07:19:03.969Z,59.20
2022-12-03T07:21:46.409Z,59.95
2022-12-03T07:24:34.964Z,59.03
2022-12-03T07:27:23.939Z,56.40
2022-12-03T07:30:14.973Z,54.58
2022-12-03T07:32:57.286Z,56.58
2022-12-03T07:35:46.034Z,52.20
2022-12-03T07:38:35.032Z,53.75
2022-12-03T07:41:24.263Z,53.65
2022-12-03T07:44:10.854Z,47.20
2022-12-03T07:47:03.225Z,40.45
2022-12-03T07:49:45.234Z,39.83
2022-12-03T07:52:34.077Z,35.45
2022-12-03T07:55:17.305Z,30.10
2022-12-03T07:58:06.005Z,35.72
2022-12-03T08:00:54.949Z,43.55
2022-12-03T08:03:44.071Z,39.42
2022-12-03T08:06:26.326Z,40.15
2022-12-03T08:09:16.400Z,39.85
2022-12-03T08:11:58.362Z,40.08
2022-12-03T08:14:47.869Z,39.58
2022-12-03T08:17:37.919Z,40.90
2022-12-03T08:20:22.820Z,41.00
2022-12-03T08:23:12.026Z,41.60
2022-12-03T08:25:54.672Z,42.83
2022-12-03T08:28:43.995Z,45.50
2022-12-03T08:31:32.881Z,51.42
2022-12-03T08:34:32.010Z,54.30
2022-12-03T08:37:21.006Z,57.00
2022-12-03T08:40:09.905Z,55.75
2022-12-03T08:42:58.881Z,60.05
2022-12-03T08:45:44.459Z,63.03
2022-12-03T08:48:44.008Z,67.82
2022-12-03T08:51:32.283Z,71.35
2022-12-03T08:54:28.002Z,71.85
2022-12-03T08:57:35.290Z,73.00
2022-12-03T09:00:30.965Z,73.90
2022-12-03T09:03:18.287Z,76.55
2022-12-03T09:06:07.045Z,73.45
2022-12-03T09:08:49.251Z,71.95
2022-12-03T09:11:38.039Z,76.75
2022-12-03T09:14:24.575Z,73.13
2022-12-03T09:17:13.061Z,73.18
2022-12-03T09:19:55.599Z,69.53
2022-12-03T09:22:44.961Z,68.35
2022-12-03T09:25:27.244Z,68.85
2022-12-03T09:28:16.966Z,63.47
2022-12-03T09:31:07.011Z,60.97
2022-12-03T09:34:01.962Z,60.22
2022-12-03T09:36:45.233Z,55.45
2022-12-03T09:39:33.880Z,54.28
2022-12-03T09:42:24.025Z,53.40
2022-12-03T09:45:06.258Z,51.33
2022-12-03T09:47:57.411Z,43.80
2022-12-03T09:50:39.429Z,40.38
2022-12-03T09:53:31.095Z,39.40
2022-12-03T09:56:13.239Z,39.38
2022-12-03T09:59:02.093Z,36.85
2022-12-03T10:01:44.448Z,32.67
2022-12-03T10:04:33.080Z,33.35
2022-12-03T10:07:41.038Z,28.15
2022-12-03T10:10:26.246Z,25.27
2022-12-03T10:13:36.910Z,24.17
2022-12-03T10:16:47.371Z,24.95
2022-12-03T10:19:50.974Z,25.52
2022-12-03T10:22:53.533Z,28.00
2022-12-03T10:26:11.891Z,24.70
2022-12-03T10:29:21.305Z,25.40
2022-12-03T10:32:29.883Z,25.13
2022-12-03T10:35:48.907Z,27.30
2022-12-03T10:38:51.354Z,27.40
2022-12-03T10:42:02.000Z,29.35
2022-12-03T10:45:27.945Z,29.42
2022-12-03T10:48:30.247Z,32.72
2022-12-03T10:51:39.005Z,35.40
2022-12-03T10:54:41.195Z,36.58
2022-12-03T10:58:01.869Z,40.05
2022-12-03T11:01:15.088Z,41.45
2022-12-03T11:04:27.969Z,42.33
2022-12-03T11:07:38.021Z,45.10
2022-12-03T11:10:40.131Z,46.75
2022-12-03T11:13:48.970Z,47.00
2022-12-03T11:17:06.974Z,49.33
2022-12-03T11:20:34.660Z,48.92
2022-12-03T11:23:26.024Z,48.95
2022-12-03T11:26:39.353Z,50.30
2022-12-03T11:29:31.039Z,51.50
2022-12-03T11:32:40.637Z,52.17
2022-12-03T11:35:52.895Z,53.15
2022-12-03T11:38:56.572Z,53.70
2022-12-03T11:41:49.962Z,58.08
2022-12-03T11:44:40.992Z,60.70
2022-12-03T11:47:25.475Z,61.35
2022-12-03T11:50:39.098Z,65.80
2022-12-03T11:53:41.887Z,68.07
2022-12-03T11:56:37.238Z,67.43
2022-12-03T11:59:23.954Z,69.13
2022-12-03T12:02:28.328Z,73.05
2022-12-03T12:08:20.728Z,70.70
2022-12-03T12:11:09.924Z,75.68
2022-12-03T12:13:55.624Z,76.05
2022-12-03T12:17:00.875Z,76.45
2022-12-03T12:19:54.364Z,75.55
2022-12-03T12:22:38.399Z,79.80
2022-12-03T12:25:50.838Z,79.00
2022-12-03T12:28:42.855Z,79.60
2022-12-03T12:31:27.292Z,80.28
2022-12-03T12:34:16.953Z,84.45
2022-12-03T12:37:02.502Z,83.03
2022-12-03T12:39:51.088Z,83.03
2022-12-03T12:42:44.406Z,84.43
2022-12-03T12:45:29.960Z,83.60
2022-12-03T12:48:31.949Z,86.53
2022-12-03T12:51:25.221Z,88.95
2022-12-03T12:54:21.934Z,86.72
2022-12-03T12:57:10.933Z,88.00
2022-12-03T12:59:55.108Z,87.93
2022-12-03T13:03:00.935Z,92.18
2022-12-03T13:05:52.837Z,88.95
2022-12-03T13:08:53.862Z,91.20
2022-12-03T13:11:52.973Z,91.45
2022-12-03T13:14:41.215Z,93.35
2022-12-03T13:17:31.870Z,91.95
2022-12-03T13:20:32.939Z,92.65
2022-12-03T13:23:41.851Z,94.30
2022-12-03T13:26:54.006Z,92.85
2022-12-03T13:29:43.245Z,93.60
2022-12-03T13:32:29.945Z,90.88
2022-12-03T13:35:37.145Z,94.15
2022-12-03T13:38:24.858Z,96.55
2022-12-03T13:41:14.006Z,99.93
2022-12-03T13:43:56.270Z,98.78
2022-12-03T13:46:44.936Z,100.20
2022-12-03T13:49:30.222Z,105.65
2022-12-03T13:52:24.958Z,103.55
2022-12-03T13:55:11.283Z,103.53
2022-12-03T13:57:59.937Z,107.15
2022-12-03T14:00:42.250Z,105.47
2022-12-03T14:03:30.889Z,107.85
2022-12-03T14:06:20.355Z,111.28
2022-12-03T14:09:09.241Z,110.55
2022-12-03T14:12:09.841Z,110.20
2022-12-03T14:14:52.155Z,110.32
2022-12-03T14:17:46.004Z,113.43
2022-12-03T14:21:09.393Z,117.10
2022-12-03T14:23:50.992Z,115.32
2022-12-03T14:26:42.986Z,116.53
2022-12-03T14:29:37.857Z,119.43
2022-12-03T14:35:39.942Z,114.35
2022-12-03T14:38:34.854Z,116.28
2022-12-03T14:41:42.845Z,123.00
2022-12-03T14:44:31.961Z,121.18
2022-12-03T14:47:23.927Z,126.07
2022-12-03T14:50:33.055Z,126.60
2022-12-03T14:53:44.237Z,126.43
2022-12-03T14:56:45.996Z,127.10
2022-12-03T14:59:28.295Z,124.38
2022-12-03T15:02:19.888Z,126.28
2022-12-03T15:05:02.412Z,128.30
2022-12-03T15:07:52.440Z,132.80
2022-12-03T15:10:34.288Z,129.35
2022-12-03T15:16:51.410Z,131.93
2022-12-03T15:19:33.889Z,131.40
2022-12-03T15:22:16.561Z,130.63
2022-12-03T15:25:06.029Z,127.72
2022-12-03T15:27:55.331Z,129.57
2022-12-03T15:30:39.032Z,138.05
2022-12-03T15:33:21.317Z,148.20
2022-12-03T15:36:21.011Z,149.00
2022-12-03T15:39:09.736Z,144.90
2022-12-03T15:41:59.365Z,141.32
2022-12-03T15:44:41.221Z,136.68
2022-12-03T15:47:29.963Z,135.93
2022-12-03T15:50:20.040Z,134.40
2022-12-03T15:53:03.989Z,137.00
2022-12-03T15:55:52.993Z,138.10
2022-12-03T15:58:36.780Z,138.35
2022-12-03T16:01:36.990Z,136.30
2022-12-03T16:04:26.844Z,141.20
2022-12-03T16:07:28.419Z,141.93
2022-12-03T16:10:18.523Z,142.43
2022-12-03T16:13:10.670Z,141.73
2022-12-03T16:16:19.294Z,141.32
2022-12-03T16:19:05.916Z,139.70
2022-12-03T16:21:55.030Z,144.15
2022-12-03T16:25:08.651Z,137.93
2022-12-03T16:28:37.825Z,142.27
2022-12-03T16:31:24.473Z,138.95
2022-12-03T16:34:22.497Z,138.32
2022-12-03T16:37:17.919Z,137.73
2022-12-03T16:40:10.913Z,135.35
2022-12-03T16:42:53.260Z,137.13
2022-12-03T16:45:53.004Z,136.30
2022-12-03T16:48:36.749Z,137.63
2022-12-03T16:51:29.488Z,135.55
2022-12-03T16:54:20.177Z,137.60
2022-12-03T16:57:21.623Z,137.73
2022-12-03T17:00:12.778Z,155.45
2022-12-03T17:02:56.339Z,147.20
2022-12-03T17:05:38.496Z,147.15
2022-12-03T17:08:27.971Z,146.55
2022-12-03T17:11:10.869Z,141.98
2022-12-03T17:14:01.271Z,139.20
2022-12-03T17:16:44.609Z,157.82
2022-12-03T17:19:33.977Z,156.98
2022-12-03T17:22:23.657Z,150.32
2022-12-03T17:25:07.351Z,150.63
2022-12-03T17:27:56.745Z,152.75
2022-12-03T17:30:40.293Z,148.85
2022-12-03T17:33:28.679Z,148.07
2022-12-03T17:36:12.104Z,145.68
2022-12-03T17:39:01.352Z,147.10
2022-12-03T17:41:43.956Z,152.05
2022-12-03T17:44:32.266Z,153.07
2022-12-03T17:47:14.997Z,143.02
2022-12-03T17:50:04.302Z,144.48
2022-12-03T17:52:45.847Z,144.70
2022-12-03T17:55:41.096Z,144.00
2022-12-03T17:58:34.038Z,142.02
2022-12-03T18:01:23.747Z,143.63
2022-12-03T18:04:25.366Z,142.75
2022-12-03T18:07:33.921Z,144.98
2022-12-03T18:10:17.191Z,141.85
2022-12-03T18:13:05.923Z,144.10
2022-12-03T18:16:00.799Z,145.43
2022-12-03T18:18:55.041Z,141.52
2022-12-03T18:21:39.357Z,145.73
2022-12-03T18:24:29.966Z,142.43
2022-12-03T18:27:12.363Z,144.23
2022-12-03T18:30:03.975Z,144.63
2022-12-03T18:32:47.025Z,142.10
2022-12-03T18:35:36.661Z,142.60
2022-12-03T18:38:30.947Z,146.85
2022-12-03T18:41:13.346Z,137.27
2022-12-03T18:44:01.913Z,141.52
2022-12-03T18:46:53.926Z,140.40
2022-12-03T18:49:36.432Z,136.90
2022-12-03T18:52:27.831Z,132.13
2022-12-03T18:55:10.669Z,136.40
2022-12-03T18:57:59.941Z,136.38
2022-12-03T19:00:51.282Z,137.80
2022-12-03T19:03:40.969Z,136.73
2022-12-03T19:06:30.108Z,132.98
2022-12-03T19:09:18.961Z,136.15
2022-12-03T19:12:14.433Z,143.40
2022-12-03T19:15:03.942Z,143.30
2022-12-03T19:17:59.311Z,143.38
2022-12-03T19:20:42.910Z,145.05
2022-12-03T19:23:25.239Z,145.93
2022-12-03T19:26:15.941Z,152.20
2022-12-03T19:28:58.343Z,156.18
2022-12-03T19:31:47.007Z,153.10
2022-12-03T19:34:29.291Z,142.98
2022-12-03T19:37:17.959Z,145.75
2022-12-03T19:40:00.332Z,149.23
2022-12-03T19:42:48.927Z,145.93
2022-12-03T19:45:31.157Z,143.38
2022-12-03T19:48:19.940Z,144.88
2022-12-03T19:51:26.511Z,153.63
2022-12-03T19:54:11.908Z,161.95
2022-12-03T19:57:00.932Z,156.18
2022-12-03T19:59:50.944Z,156.05
2022-12-03T20:02:33.286Z,156.05
2022-12-03T20:05:21.930Z,166.82
2022-12-03T20:08:04.820Z,162.68
2022-12-03T20:10:53.935Z,157.68
2022-12-03T20:13:36.642Z,155.75
2022-12-03T20:16:29.050Z,164.50
2022-12-03T20:19:20.873Z,160.05
2022-12-03T20:22:09.892Z,156.20
2022-12-03T20:24:58.866Z,162.52
2022-12-03T20:27:41.410Z,172.25
2022-12-03T20:30:29.912Z,164.10
2022-12-03T20:33:12.554Z,165.38
2022-12-03T20:36:04.877Z,156.65
2022-12-03T20:38:47.172Z,148.48
2022-12-03T20:41:35.949Z,144.25
2022-12-03T20:44:18.285Z,152.65
2022-12-03T20:47:06.937Z,150.45
2022-12-03T20:49:49.363Z,150.82
2022-12-03T20:52:37.937Z,151.68
2022-12-03T20:55:20.344Z,152.15
2022-12-03T20:58:08.907Z,156.30
2022-12-03T21:00:51.346Z,153.57
2022-12-03T21:03:39.852Z,160.75
2022-12-03T21:06:23.197Z,163.80
2022-12-03T21:09:14.929Z,165.82
2022-12-03T21:12:03.903Z,161.52
2022-12-03T21:14:46.262Z,171.35
2022-12-03T21:17:34.950Z,166.45
2022-12-03T21:20:21.025Z,167.05
2022-12-03T21:23:09.913Z,173.18
2022-12-03T21:25:52.090Z,179.50
2022-12-03T21:28:40.897Z,177.80
2022-12-03T21:31:26.807Z,182.93
2022-12-03T21:34:15.910Z,183.90
2022-12-03T21:37:04.880Z,187.50
2022-12-03T21:39:47.148Z,184.70
2022-12-03T21:42:37.185Z,188.15
2022-12-03T21:45:19.191Z,186.43
2022-12-03T21:48:07.914Z,185.85
2022-12-03T21:50:50.140Z,181.90
2022-12-03T21:53:43.613Z,181.82
2022-12-03T21:56:27.383Z,180.15
2022-12-03T21:59:15.918Z,182.85
2022-12-03T22:01:58.401Z,180.18
2022-12-03T22:04:47.901Z,178.98
2022-12-03T22:07:30.431Z,175.25
2022-12-03T22:10:19.878Z,173.95
2022-12-03T22:13:02.208Z,169.48
2022-12-03T22:15:50.890Z,169.63
2022-12-03T22:18:46.922Z,163.73
2022-12-03T22:21:29.179Z,166.98
2022-12-03T22:24:17.838Z,161.13
2022-12-03T22:27:00.104Z,159.05
2022-12-03T22:29:48.888Z,161.68
2022-12-03T22:32:37.204Z,158.98
2022-12-03T22:35:18.896Z,154.70
2022-12-03T22:38:07.935Z,159.55
2022-12-03T22:40:56.886Z,160.48
2022-12-03T22:43:39.295Z,161.85
2022-12-03T22:46:27.919Z,159.93
2022-12-03T22:49:16.889Z,150.52
2022-12-03T22:51:59.195Z,153.15
2022-12-03T22:54:47.897Z,149.70
2022-12-03T22:57:36.901Z,151.20
2022-12-03T23:00:33.363Z,150.32
2022-12-03T23:03:22.846Z,154.10
2022-12-03T23:06:11.933Z,152.65
2022-12-03T23:09:00.887Z,149.45
2022-12-03T23:11:52.169Z,151.57
2022-12-03T23:14:33.879Z,151.38
2022-12-03T23:17:28.859Z,149.43
2022-12-03T23:20:17.838Z,145.85
2022-12-03T23:23:01.172Z,150.60
2022-12-03T23:25:49.883Z,147.75
2022-12-03T23:28:33.092Z,147.52
2022-12-03T23:31:33.955Z,153.10
2022-12-03T23:34:16.138Z,148.27
2022-12-03T23:37:04.906Z,144.77
2022-12-03T23:39:47.158Z,142.05
2022-12-03T23:42:35.872Z,139.77
2022-12-03T23:45:18.153Z,142.98
2022-12-03T23:48:06.842Z,141.65
2022-12-03T23:50:49.143Z,145.48
2022-12-03T23:53:37.838Z,139.82
2022-12-03T23:56:33.895Z,136.82
2022-12-03T23:59:22.880Z,138.20
